sensor_id;sensor_type;location;lat;lon;timestamp;P1;durP1;ratioP1;P2;durP2;ratioP2
77775;SDS011;66965;43.328;6.668;2023-04-30T00:01:22;8.77;;;4.77;;
77775;SDS011;66965;43.328;6.668;2023-04-30T00:03:48;7.88;;;3.92;;
77775;SDS011;66965;43.328;6.668;2023-04-30T00:06:13;7.80;;;4.00;;
77775;SDS011;66965;43.328;6.668;2023-04-30T00:08:39;9.63;;;3.97;;
77775;SDS011;66965;43.328;6.668;2023-04-30T00:11:04;7.13;;;3.83;;
77775;SDS011;66965;43.328;6.668;2023-04-30T00:13:30;6.97;;;3.57;;
77775;SDS011;66965;43.328;6.668;2023-04-30T00:15:55;6.73;;;3.73;;
77775;SDS011;66965;43.328;6.668;2023-04-30T00:18:20;11.63;;;4.97;;
77775;SDS011;66965;43.328;6.668;2023-04-30T00:20:45;10.97;;;4.07;;
77775;SDS011;66965;43.328;6.668;2023-04-30T00:23:11;10.27;;;4.43;;
77775;SDS011;66965;43.328;6.668;2023-04-30T00:25:36;8.27;;;4.85;;
77775;SDS011;66965;43.328;6.668;2023-04-30T00:28:01;10.57;;;5.23;;
77775;SDS011;66965;43.328;6.668;2023-04-30T00:30:27;9.82;;;4.80;;
77775;SDS011;66965;43.328;6.668;2023-04-30T00:32:52;7.37;;;3.80;;
77775;SDS011;66965;43.328;6.668;2023-04-30T00:35:17;7.93;;;4.03;;
77775;SDS011;66965;43.328;6.668;2023-04-30T00:37:43;11.57;;;4.87;;
77775;SDS011;66965;43.328;6.668;2023-04-30T00:40:08;10.03;;;3.50;;
77775;SDS011;66965;43.328;6.668;2023-04-30T00:42:33;8.63;;;4.18;;
77775;SDS011;66965;43.328;6.668;2023-04-30T00:44:59;7.53;;;4.33;;
77775;SDS011;66965;43.328;6.668;2023-04-30T00:47:24;8.45;;;3.90;;
77775;SDS011;66965;43.328;6.668;2023-04-30T00:49:49;10.93;;;3.80;;
77775;SDS011;66965;43.328;6.668;2023-04-30T00:52:15;10.82;;;4.45;;
77775;SDS011;66965;43.328;6.668;2023-04-30T00:54:40;6.17;;;3.77;;
77775;SDS011;66965;43.328;6.668;2023-04-30T00:57:06;8.63;;;3.65;;
77775;SDS011;66965;43.328;6.668;2023-04-30T00:59:33;8.43;;;4.00;;
77775;SDS011;66965;43.328;6.668;2023-04-30T01:01:59;8.90;;;3.90;;
77775;SDS011;66965;43.328;6.668;2023-04-30T01:04:24;7.78;;;3.95;;
77775;SDS011;66965;43.328;6.668;2023-04-30T01:06:50;10.45;;;4.28;;
77775;SDS011;66965;43.328;6.668;2023-04-30T01:09:16;9.73;;;4.13;;
77775;SDS011;66965;43.328;6.668;2023-04-30T01:21:52;9.98;;;4.05;;
77775;SDS011;66965;43.328;6.668;2023-04-30T01:24:42;8.57;;;4.50;;
77775;SDS011;66965;43.328;6.668;2023-04-30T01:30:15;8.15;;;3.58;;
77775;SDS011;66965;43.328;6.668;2023-04-30T01:32:41;5.55;;;3.58;;
77775;SDS011;66965;43.328;6.668;2023-04-30T01:35:06;7.93;;;4.00;;
77775;SDS011;66965;43.328;6.668;2023-04-30T01:40:23;9.20;;;4.40;;
77775;SDS011;66965;43.328;6.668;2023-04-30T01:47:54;8.35;;;3.83;;
77775;SDS011;66965;43.328;6.668;2023-04-30T01:52:53;8.90;;;4.45;;
77775;SDS011;66965;43.328;6.668;2023-04-30T01:57:56;8.02;;;3.90;;
77775;SDS011;66965;43.328;6.668;2023-04-30T02:02:50;7.97;;;4.28;;
77775;SDS011;66965;43.328;6.668;2023-04-30T02:05:15;10.40;;;3.73;;
77775;SDS011;66965;43.328;6.668;2023-04-30T02:07:41;8.40;;;4.18;;
77775;SDS011;66965;43.328;6.668;2023-04-30T02:10:08;7.10;;;3.47;;
77775;SDS011;66965;43.328;6.668;2023-04-30T02:12:33;6.53;;;4.00;;
77775;SDS011;66965;43.328;6.668;2023-04-30T02:14:59;7.95;;;4.20;;
77775;SDS011;66965;43.328;6.668;2023-04-30T02:17:24;9.13;;;4.40;;
77775;SDS011;66965;43.328;6.668;2023-04-30T02:19:50;11.43;;;4.47;;
77775;SDS011;66965;43.328;6.668;2023-04-30T02:22:15;5.90;;;3.50;;
77775;SDS011;66965;43.328;6.668;2023-04-30T02:24:40;10.10;;;3.97;;
77775;SDS011;66965;43.328;6.668;2023-04-30T02:27:05;7.13;;;3.40;;
77775;SDS011;66965;43.328;6.668;2023-04-30T02:29:31;7.88;;;3.67;;
77775;SDS011;66965;43.328;6.668;2023-04-30T02:31:57;9.07;;;3.80;;
77775;SDS011;66965;43.328;6.668;2023-04-30T02:34:22;6.82;;;3.42;;
77775;SDS011;66965;43.328;6.668;2023-04-30T02:36:47;9.13;;;4.17;;
77775;SDS011;66965;43.328;6.668;2023-04-30T02:39:13;7.90;;;4.40;;
77775;SDS011;66965;43.328;6.668;2023-04-30T02:41:38;9.27;;;4.47;;
77775;SDS011;66965;43.328;6.668;2023-04-30T02:44:03;8.03;;;3.97;;
77775;SDS011;66965;43.328;6.668;2023-04-30T02:46:28;8.10;;;4.30;;
77775;SDS011;66965;43.328;6.668;2023-04-30T02:48:54;13.90;;;4.90;;
77775;SDS011;66965;43.328;6.668;2023-04-30T02:51:19;11.77;;;4.20;;
77775;SDS011;66965;43.328;6.668;2023-04-30T02:53:44;10.60;;;3.87;;
77775;SDS011;66965;43.328;6.668;2023-04-30T02:56:09;10.23;;;4.20;;
77775;SDS011;66965;43.328;6.668;2023-04-30T02:58:35;9.83;;;4.13;;
77775;SDS011;66965;43.328;6.668;2023-04-30T03:01:00;8.73;;;3.83;;
77775;SDS011;66965;43.328;6.668;2023-04-30T03:03:25;10.23;;;4.37;;
77775;SDS011;66965;43.328;6.668;2023-04-30T03:05:50;5.93;;;3.40;;
77775;SDS011;66965;43.328;6.668;2023-04-30T03:08:16;7.57;;;3.90;;
77775;SDS011;66965;43.328;6.668;2023-04-30T03:10:41;5.63;;;3.13;;
77775;SDS011;66965;43.328;6.668;2023-04-30T03:13:06;6.13;;;3.20;;
77775;SDS011;66965;43.328;6.668;2023-04-30T03:15:32;6.60;;;3.17;;
77775;SDS011;66965;43.328;6.668;2023-04-30T03:17:57;7.93;;;4.30;;
77775;SDS011;66965;43.328;6.668;2023-04-30T03:20:22;6.87;;;3.57;;
77775;SDS011;66965;43.328;6.668;2023-04-30T03:22:47;8.27;;;3.63;;
77775;SDS011;66965;43.328;6.668;2023-04-30T03:25:13;8.87;;;3.93;;
77775;SDS011;66965;43.328;6.668;2023-04-30T03:27:38;7.28;;;3.60;;
77775;SDS011;66965;43.328;6.668;2023-04-30T03:30:04;5.60;;;3.30;;
77775;SDS011;66965;43.328;6.668;2023-04-30T03:32:29;6.93;;;3.55;;
77775;SDS011;66965;43.328;6.668;2023-04-30T03:34:55;8.00;;;3.53;;
77775;SDS011;66965;43.328;6.668;2023-04-30T03:37:20;7.82;;;4.15;;
77775;SDS011;66965;43.328;6.668;2023-04-30T03:39:45;8.03;;;3.97;;
77775;SDS011;66965;43.328;6.668;2023-04-30T03:42:10;7.60;;;3.73;;
77775;SDS011;66965;43.328;6.668;2023-04-30T03:44:36;9.43;;;4.37;;
77775;SDS011;66965;43.328;6.668;2023-04-30T03:47:03;12.60;;;4.70;;
77775;SDS011;66965;43.328;6.668;2023-04-30T03:49:28;9.40;;;3.47;;
77775;SDS011;66965;43.328;6.668;2023-04-30T03:51:53;6.07;;;3.63;;
77775;SDS011;66965;43.328;6.668;2023-04-30T03:54:18;8.53;;;3.67;;
77775;SDS011;66965;43.328;6.668;2023-04-30T03:56:44;7.33;;;3.50;;
77775;SDS011;66965;43.328;6.668;2023-04-30T03:59:09;10.05;;;5.18;;
77775;SDS011;66965;43.328;6.668;2023-04-30T04:01:35;9.55;;;3.63;;
77775;SDS011;66965;43.328;6.668;2023-04-30T04:04:00;11.87;;;3.80;;
77775;SDS011;66965;43.328;6.668;2023-04-30T04:06:26;9.70;;;4.13;;
77775;SDS011;66965;43.328;6.668;2023-04-30T04:08:51;6.33;;;3.53;;
77775;SDS011;66965;43.328;6.668;2023-04-30T04:11:16;6.88;;;3.60;;
77775;SDS011;66965;43.328;6.668;2023-04-30T04:13:42;8.07;;;3.40;;
77775;SDS011;66965;43.328;6.668;2023-04-30T04:16:07;8.23;;;3.97;;
77775;SDS011;66965;43.328;6.668;2023-04-30T04:18:33;7.90;;;4.13;;
77775;SDS011;66965;43.328;6.668;2023-04-30T04:20:58;7.93;;;3.63;;
77775;SDS011;66965;43.328;6.668;2023-04-30T04:23:25;8.80;;;4.00;;
77775;SDS011;66965;43.328;6.668;2023-04-30T04:25:50;6.27;;;3.63;;
77775;SDS011;66965;43.328;6.668;2023-04-30T04:28:16;9.90;;;4.40;;
77775;SDS011;66965;43.328;6.668;2023-04-30T04:30:41;6.68;;;3.72;;
77775;SDS011;66965;43.328;6.668;2023-04-30T04:33:07;7.90;;;4.00;;
77775;SDS011;66965;43.328;6.668;2023-04-30T04:35:32;7.07;;;4.00;;
77775;SDS011;66965;43.328;6.668;2023-04-30T04:37:59;9.50;;;4.20;;
77775;SDS011;66965;43.328;6.668;2023-04-30T04:40:24;7.07;;;3.65;;
77775;SDS011;66965;43.328;6.668;2023-04-30T04:42:49;8.73;;;4.28;;
77775;SDS011;66965;43.328;6.668;2023-04-30T04:45:19;9.68;;;4.63;;
77775;SDS011;66965;43.328;6.668;2023-04-30T04:47:45;7.57;;;3.50;;
77775;SDS011;66965;43.328;6.668;2023-04-30T04:50:10;7.72;;;3.92;;
77775;SDS011;66965;43.328;6.668;2023-04-30T04:52:36;6.55;;;3.95;;
77775;SDS011;66965;43.328;6.668;2023-04-30T04:55:01;8.60;;;3.90;;
77775;SDS011;66965;43.328;6.668;2023-04-30T04:57:26;5.97;;;4.03;;
77775;SDS011;66965;43.328;6.668;2023-04-30T04:59:52;8.97;;;4.00;;
77775;SDS011;66965;43.328;6.668;2023-04-30T05:02:17;6.75;;;3.85;;
77775;SDS011;66965;43.328;6.668;2023-04-30T05:04:42;10.53;;;3.87;;
77775;SDS011;66965;43.328;6.668;2023-04-30T05:07:08;6.53;;;3.50;;
77775;SDS011;66965;43.328;6.668;2023-04-30T05:09:33;8.10;;;4.67;;
77775;SDS011;66965;43.328;6.668;2023-04-30T05:11:58;7.17;;;4.03;;
77775;SDS011;66965;43.328;6.668;2023-04-30T05:14:24;8.77;;;3.60;;
77775;SDS011;66965;43.328;6.668;2023-04-30T05:16:49;6.50;;;3.93;;
77775;SDS011;66965;43.328;6.668;2023-04-30T05:19:14;6.67;;;3.63;;
77775;SDS011;66965;43.328;6.668;2023-04-30T05:21:39;8.03;;;4.13;;
77775;SDS011;66965;43.328;6.668;2023-04-30T05:24:05;8.07;;;4.13;;
77775;SDS011;66965;43.328;6.668;2023-04-30T05:26:30;5.70;;;3.50;;
77775;SDS011;66965;43.328;6.668;2023-04-30T05:28:56;10.95;;;4.32;;
77775;SDS011;66965;43.328;6.668;2023-04-30T05:31:21;8.85;;;3.85;;
77775;SDS011;66965;43.328;6.668;2023-04-30T05:33:46;7.25;;;3.55;;
77775;SDS011;66965;43.328;6.668;2023-04-30T05:36:12;6.57;;;3.42;;
77775;SDS011;66965;43.328;6.668;2023-04-30T05:38:37;7.25;;;3.38;;
77775;SDS011;66965;43.328;6.668;2023-04-30T05:41:03;7.60;;;3.60;;
77775;SDS011;66965;43.328;6.668;2023-04-30T05:43:28;8.75;;;4.25;;
77775;SDS011;66965;43.328;6.668;2023-04-30T05:45:53;7.50;;;3.23;;
77775;SDS011;66965;43.328;6.668;2023-04-30T05:48:18;5.83;;;3.30;;
77775;SDS011;66965;43.328;6.668;2023-04-30T05:50:44;6.93;;;3.88;;
77775;SDS011;66965;43.328;6.668;2023-04-30T05:53:09;9.02;;;4.72;;
77775;SDS011;66965;43.328;6.668;2023-04-30T05:55:35;6.80;;;3.35;;
77775;SDS011;66965;43.328;6.668;2023-04-30T05:58:00;6.15;;;3.28;;
77775;SDS011;66965;43.328;6.668;2023-04-30T06:00:25;8.70;;;4.27;;
77775;SDS011;66965;43.328;6.668;2023-04-30T06:02:50;7.73;;;3.77;;
77775;SDS011;66965;43.328;6.668;2023-04-30T06:05:17;7.07;;;4.55;;
77775;SDS011;66965;43.328;6.668;2023-04-30T06:07:42;6.43;;;4.20;;
77775;SDS011;66965;43.328;6.668;2023-04-30T06:10:08;6.63;;;3.92;;
77775;SDS011;66965;43.328;6.668;2023-04-30T06:12:34;10.40;;;4.32;;
77775;SDS011;66965;43.328;6.668;2023-04-30T06:14:59;8.20;;;4.78;;
77775;SDS011;66965;43.328;6.668;2023-04-30T06:17:24;7.77;;;4.27;;
77775;SDS011;66965;43.328;6.668;2023-04-30T06:19:50;6.23;;;3.90;;
77775;SDS011;66965;43.328;6.668;2023-04-30T06:22:15;7.85;;;4.35;;
77775;SDS011;66965;43.328;6.668;2023-04-30T06:24:40;6.80;;;3.80;;
77775;SDS011;66965;43.328;6.668;2023-04-30T06:27:06;7.07;;;3.87;;
77775;SDS011;66965;43.328;6.668;2023-04-30T06:29:31;8.57;;;4.97;;
77775;SDS011;66965;43.328;6.668;2023-04-30T06:31:56;8.33;;;4.80;;
77775;SDS011;66965;43.328;6.668;2023-04-30T06:34:21;11.37;;;4.53;;
77775;SDS011;66965;43.328;6.668;2023-04-30T06:36:47;10.00;;;5.07;;
77775;SDS011;66965;43.328;6.668;2023-04-30T06:39:15;7.22;;;4.13;;
77775;SDS011;66965;43.328;6.668;2023-04-30T06:41:41;9.05;;;5.10;;
77775;SDS011;66965;43.328;6.668;2023-04-30T06:44:07;7.55;;;4.47;;
77775;SDS011;66965;43.328;6.668;2023-04-30T06:46:32;7.20;;;4.50;;
77775;SDS011;66965;43.328;6.668;2023-04-30T06:48:58;10.07;;;4.53;;
77775;SDS011;66965;43.328;6.668;2023-04-30T06:51:23;7.77;;;4.50;;
77775;SDS011;66965;43.328;6.668;2023-04-30T06:53:49;7.33;;;4.70;;
77775;SDS011;66965;43.328;6.668;2023-04-30T06:56:14;16.40;;;6.87;;
77775;SDS011;66965;43.328;6.668;2023-04-30T06:58:40;14.85;;;6.10;;
77775;SDS011;66965;43.328;6.668;2023-04-30T07:01:06;21.08;;;6.03;;
77775;SDS011;66965;43.328;6.668;2023-04-30T07:03:32;17.33;;;5.10;;
77775;SDS011;66965;43.328;6.668;2023-04-30T07:05:58;15.00;;;5.05;;
77775;SDS011;66965;43.328;6.668;2023-04-30T07:08:23;15.00;;;5.70;;
77775;SDS011;66965;43.328;6.668;2023-04-30T07:10:48;13.23;;;5.43;;
77775;SDS011;66965;43.328;6.668;2023-04-30T07:13:14;20.60;;;6.35;;
77775;SDS011;66965;43.328;6.668;2023-04-30T07:15:40;16.55;;;5.47;;
77775;SDS011;66965;43.328;6.668;2023-04-30T07:18:06;17.33;;;5.13;;
77775;SDS011;66965;43.328;6.668;2023-04-30T07:20:31;15.97;;;5.53;;
77775;SDS011;66965;43.328;6.668;2023-04-30T07:22:56;11.50;;;5.43;;
77775;SDS011;66965;43.328;6.668;2023-04-30T07:25:22;8.50;;;4.82;;
77775;SDS011;66965;43.328;6.668;2023-04-30T07:27:47;9.67;;;4.67;;
77775;SDS011;66965;43.328;6.668;2023-04-30T07:30:15;9.02;;;4.38;;
77775;SDS011;66965;43.328;6.668;2023-04-30T07:32:40;9.35;;;4.22;;
77775;SDS011;66965;43.328;6.668;2023-04-30T07:35:06;8.30;;;4.13;;
77775;SDS011;66965;43.328;6.668;2023-04-30T07:37:31;7.85;;;4.15;;
77775;SDS011;66965;43.328;6.668;2023-04-30T07:39:56;6.20;;;3.33;;
77775;SDS011;66965;43.328;6.668;2023-04-30T07:42:22;9.90;;;4.82;;
77775;SDS011;66965;43.328;6.668;2023-04-30T07:44:47;6.80;;;4.17;;
77775;SDS011;66965;43.328;6.668;2023-04-30T07:47:13;6.55;;;3.65;;
77775;SDS011;66965;43.328;6.668;2023-04-30T07:49:38;8.37;;;4.07;;
77775;SDS011;66965;43.328;6.668;2023-04-30T07:52:03;6.27;;;3.87;;
77775;SDS011;66965;43.328;6.668;2023-04-30T07:54:30;7.95;;;3.78;;
77775;SDS011;66965;43.328;6.668;2023-04-30T07:56:55;9.57;;;4.15;;
77775;SDS011;66965;43.328;6.668;2023-04-30T07:59:20;7.53;;;4.30;;
77775;SDS011;66965;43.328;6.668;2023-04-30T08:01:48;8.52;;;4.05;;
77775;SDS011;66965;43.328;6.668;2023-04-30T08:04:13;10.00;;;4.30;;
77775;SDS011;66965;43.328;6.668;2023-04-30T08:06:38;8.37;;;4.53;;
77775;SDS011;66965;43.328;6.668;2023-04-30T08:09:04;9.77;;;3.97;;
77775;SDS011;66965;43.328;6.668;2023-04-30T08:11:29;10.93;;;5.30;;
77775;SDS011;66965;43.328;6.668;2023-04-30T08:13:54;6.67;;;3.57;;
77775;SDS011;66965;43.328;6.668;2023-04-30T08:16:20;6.17;;;3.60;;
77775;SDS011;66965;43.328;6.668;2023-04-30T08:18:45;8.13;;;3.73;;
77775;SDS011;66965;43.328;6.668;2023-04-30T08:21:13;11.93;;;3.93;;
77775;SDS011;66965;43.328;6.668;2023-04-30T08:23:39;17.65;;;4.97;;
77775;SDS011;66965;43.328;6.668;2023-04-30T08:26:04;16.10;;;6.20;;
77775;SDS011;66965;43.328;6.668;2023-04-30T08:28:29;10.00;;;3.83;;
77775;SDS011;66965;43.328;6.668;2023-04-30T08:30:55;9.05;;;3.45;;
77775;SDS011;66965;43.328;6.668;2023-04-30T08:33:20;8.67;;;3.93;;
77775;SDS011;66965;43.328;6.668;2023-04-30T08:35:45;7.67;;;3.13;;
77775;SDS011;66965;43.328;6.668;2023-04-30T08:38:11;7.70;;;3.17;;
77775;SDS011;66965;43.328;6.668;2023-04-30T08:40:36;8.63;;;3.40;;
77775;SDS011;66965;43.328;6.668;2023-04-30T08:43:05;9.63;;;3.00;;
77775;SDS011;66965;43.328;6.668;2023-04-30T08:45:34;9.35;;;2.90;;
77775;SDS011;66965;43.328;6.668;2023-04-30T08:48:01;9.05;;;3.42;;
77775;SDS011;66965;43.328;6.668;2023-04-30T08:50:26;8.23;;;3.47;;
77775;SDS011;66965;43.328;6.668;2023-04-30T08:52:52;10.57;;;3.65;;
77775;SDS011;66965;43.328;6.668;2023-04-30T08:55:17;17.33;;;4.33;;
77775;SDS011;66965;43.328;6.668;2023-04-30T08:57:42;28.93;;;5.77;;
77775;SDS011;66965;43.328;6.668;2023-04-30T09:00:08;21.57;;;4.80;;
77775;SDS011;66965;43.328;6.668;2023-04-30T09:02:33;31.98;;;6.57;;
77775;SDS011;66965;43.328;6.668;2023-04-30T09:04:59;18.25;;;4.38;;
77775;SDS011;66965;43.328;6.668;2023-04-30T09:07:24;18.63;;;4.10;;
77775;SDS011;66965;43.328;6.668;2023-04-30T09:09:52;9.27;;;3.40;;
77775;SDS011;66965;43.328;6.668;2023-04-30T09:12:17;12.93;;;3.97;;
77775;SDS011;66965;43.328;6.668;2023-04-30T09:17:27;13.43;;;3.38;;
77775;SDS011;66965;43.328;6.668;2023-04-30T09:19:53;14.50;;;3.95;;
77775;SDS011;66965;43.328;6.668;2023-04-30T09:22:21;11.50;;;3.77;;
77775;SDS011;66965;43.328;6.668;2023-04-30T09:24:47;16.13;;;4.65;;
77775;SDS011;66965;43.328;6.668;2023-04-30T09:29:38;13.23;;;3.95;;
77775;SDS011;66965;43.328;6.668;2023-04-30T09:32:07;14.88;;;4.07;;
77775;SDS011;66965;43.328;6.668;2023-04-30T09:34:33;9.05;;;4.03;;
77775;SDS011;66965;43.328;6.668;2023-04-30T09:36:59;17.50;;;5.47;;
77775;SDS011;66965;43.328;6.668;2023-04-30T09:39:24;14.63;;;4.47;;
77775;SDS011;66965;43.328;6.668;2023-04-30T09:41:50;13.87;;;4.43;;
77775;SDS011;66965;43.328;6.668;2023-04-30T09:44:31;17.67;;;4.85;;
77775;SDS011;66965;43.328;6.668;2023-04-30T09:49:25;14.50;;;4.30;;
77775;SDS011;66965;43.328;6.668;2023-04-30T09:54:20;10.68;;;3.65;;
77775;SDS011;66965;43.328;6.668;2023-04-30T09:56:46;11.73;;;4.05;;
77775;SDS011;66965;43.328;6.668;2023-04-30T09:59:11;11.30;;;4.22;;
77775;SDS011;66965;43.328;6.668;2023-04-30T10:04:03;14.85;;;4.45;;
77775;SDS011;66965;43.328;6.668;2023-04-30T10:06:29;14.65;;;7.05;;
77775;SDS011;66965;43.328;6.668;2023-04-30T10:08:59;20.77;;;6.28;;
77775;SDS011;66965;43.328;6.668;2023-04-30T10:11:27;9.60;;;4.55;;
77775;SDS011;66965;43.328;6.668;2023-04-30T10:13:59;9.50;;;4.40;;
77775;SDS011;66965;43.328;6.668;2023-04-30T10:18:56;18.58;;;5.38;;
77775;SDS011;66965;43.328;6.668;2023-04-30T10:21:23;16.40;;;4.32;;
77775;SDS011;66965;43.328;6.668;2023-04-30T10:23:50;10.68;;;3.50;;
77775;SDS011;66965;43.328;6.668;2023-04-30T10:26:15;9.55;;;3.50;;
77775;SDS011;66965;43.328;6.668;2023-04-30T10:28:42;18.48;;;4.40;;
77775;SDS011;66965;43.328;6.668;2023-04-30T10:31:07;16.05;;;4.85;;
77775;SDS011;66965;43.328;6.668;2023-04-30T10:33:47;10.25;;;3.95;;
77775;SDS011;66965;43.328;6.668;2023-04-30T10:36:15;11.07;;;3.33;;
77775;SDS011;66965;43.328;6.668;2023-04-30T10:38:43;12.15;;;3.88;;
77775;SDS011;66965;43.328;6.668;2023-04-30T10:41:08;15.57;;;6.00;;
77775;SDS011;66965;43.328;6.668;2023-04-30T10:43:34;13.93;;;5.00;;
77775;SDS011;66965;43.328;6.668;2023-04-30T10:46:00;10.80;;;4.03;;
77775;SDS011;66965;43.328;6.668;2023-04-30T10:48:26;10.98;;;6.05;;
77775;SDS011;66965;43.328;6.668;2023-04-30T10:50:57;10.82;;;3.63;;
77775;SDS011;66965;43.328;6.668;2023-04-30T10:53:23;16.98;;;4.72;;
77775;SDS011;66965;43.328;6.668;2023-04-30T10:55:57;13.40;;;4.05;;
77775;SDS011;66965;43.328;6.668;2023-04-30T10:58:23;10.65;;;4.07;;
77775;SDS011;66965;43.328;6.668;2023-04-30T11:00:59;8.80;;;4.60;;
77775;SDS011;66965;43.328;6.668;2023-04-30T11:03:26;12.57;;;4.70;;
77775;SDS011;66965;43.328;6.668;2023-04-30T11:05:52;16.42;;;4.85;;
77775;SDS011;66965;43.328;6.668;2023-04-30T11:08:17;13.00;;;4.13;;
77775;SDS011;66965;43.328;6.668;2023-04-30T11:10:58;13.88;;;4.72;;
77775;SDS011;66965;43.328;6.668;2023-04-30T11:13:26;14.07;;;4.53;;
77775;SDS011;66965;43.328;6.668;2023-04-30T11:15:52;12.10;;;4.10;;
77775;SDS011;66965;43.328;6.668;2023-04-30T11:18:17;12.68;;;4.10;;
77775;SDS011;66965;43.328;6.668;2023-04-30T11:20:48;11.57;;;4.57;;
77775;SDS011;66965;43.328;6.668;2023-04-30T11:23:15;16.48;;;5.38;;
77775;SDS011;66965;43.328;6.668;2023-04-30T11:25:44;21.77;;;5.22;;
77775;SDS011;66965;43.328;6.668;2023-04-30T11:28:12;14.25;;;5.45;;
77775;SDS011;66965;43.328;6.668;2023-04-30T11:30:38;21.27;;;4.97;;
77775;SDS011;66965;43.328;6.668;2023-04-30T11:33:03;18.63;;;5.25;;
77775;SDS011;66965;43.328;6.668;2023-04-30T11:35:29;17.45;;;5.22;;
77775;SDS011;66965;43.328;6.668;2023-04-30T11:37:54;33.58;;;6.55;;
77775;SDS011;66965;43.328;6.668;2023-04-30T11:40:20;30.27;;;8.82;;
77775;SDS011;66965;43.328;6.668;2023-04-30T11:42:46;20.13;;;6.07;;
77775;SDS011;66965;43.328;6.668;2023-04-30T11:45:15;26.38;;;5.78;;
77775;SDS011;66965;43.328;6.668;2023-04-30T11:47:48;16.48;;;5.75;;
77775;SDS011;66965;43.328;6.668;2023-04-30T11:50:18;9.57;;;4.05;;
77775;SDS011;66965;43.328;6.668;2023-04-30T11:52:50;11.95;;;4.57;;
77775;SDS011;66965;43.328;6.668;2023-04-30T11:57:44;12.73;;;4.90;;
77775;SDS011;66965;43.328;6.668;2023-04-30T12:00:11;16.35;;;6.20;;
77775;SDS011;66965;43.328;6.668;2023-04-30T12:02:37;35.85;;;9.52;;
77775;SDS011;66965;43.328;6.668;2023-04-30T12:05:03;23.75;;;6.15;;
77775;SDS011;66965;43.328;6.668;2023-04-30T12:07:29;10.80;;;5.35;;
77775;SDS011;66965;43.328;6.668;2023-04-30T12:09:54;16.23;;;5.30;;
77775;SDS011;66965;43.328;6.668;2023-04-30T12:12:26;20.27;;;6.72;;
77775;SDS011;66965;43.328;6.668;2023-04-30T12:14:51;17.67;;;5.95;;
77775;SDS011;66965;43.328;6.668;2023-04-30T12:17:32;20.00;;;6.33;;
77775;SDS011;66965;43.328;6.668;2023-04-30T12:19:58;15.63;;;6.28;;
77775;SDS011;66965;43.328;6.668;2023-04-30T12:22:23;20.07;;;6.80;;
77775;SDS011;66965;43.328;6.668;2023-04-30T12:24:49;26.50;;;7.15;;
77775;SDS011;66965;43.328;6.668;2023-04-30T12:27:14;30.30;;;7.83;;
77775;SDS011;66965;43.328;6.668;2023-04-30T12:29:42;22.03;;;7.40;;
77775;SDS011;66965;43.328;6.668;2023-04-30T12:32:09;24.45;;;6.03;;
77775;SDS011;66965;43.328;6.668;2023-04-30T12:34:36;10.73;;;5.40;;
77775;SDS011;66965;43.328;6.668;2023-04-30T12:37:01;15.95;;;5.63;;
77775;SDS011;66965;43.328;6.668;2023-04-30T12:39:31;17.90;;;6.30;;
77775;SDS011;66965;43.328;6.668;2023-04-30T12:41:58;18.50;;;5.75;;
77775;SDS011;66965;43.328;6.668;2023-04-30T12:44:24;14.40;;;5.35;;
77775;SDS011;66965;43.328;6.668;2023-04-30T12:49:22;16.60;;;5.65;;
77775;SDS011;66965;43.328;6.668;2023-04-30T12:51:48;15.40;;;5.63;;
77775;SDS011;66965;43.328;6.668;2023-04-30T12:54:14;25.03;;;6.20;;
77775;SDS011;66965;43.328;6.668;2023-04-30T12:56:55;11.27;;;5.15;;
77775;SDS011;66965;43.328;6.668;2023-04-30T12:59:20;12.85;;;5.25;;
77775;SDS011;66965;43.328;6.668;2023-04-30T13:01:45;17.80;;;5.33;;
77775;SDS011;66965;43.328;6.668;2023-04-30T13:04:11;20.38;;;6.20;;
77775;SDS011;66965;43.328;6.668;2023-04-30T13:06:36;18.50;;;7.07;;
77775;SDS011;66965;43.328;6.668;2023-04-30T13:09:02;24.35;;;6.32;;
77775;SDS011;66965;43.328;6.668;2023-04-30T13:11:28;17.65;;;6.47;;
77775;SDS011;66965;43.328;6.668;2023-04-30T13:13:53;18.03;;;4.90;;
77775;SDS011;66965;43.328;6.668;2023-04-30T13:16:21;19.02;;;6.35;;
77775;SDS011;66965;43.328;6.668;2023-04-30T13:18:48;18.88;;;6.05;;
77775;SDS011;66965;43.328;6.668;2023-04-30T13:21:13;22.00;;;6.70;;
77775;SDS011;66965;43.328;6.668;2023-04-30T13:23:38;19.43;;;6.57;;
77775;SDS011;66965;43.328;6.668;2023-04-30T13:26:04;14.87;;;5.63;;
77775;SDS011;66965;43.328;6.668;2023-04-30T13:28:29;22.05;;;6.97;;
77775;SDS011;66965;43.328;6.668;2023-04-30T13:30:54;17.53;;;5.97;;
77775;SDS011;66965;43.328;6.668;2023-04-30T13:33:20;25.77;;;7.50;;
77775;SDS011;66965;43.328;6.668;2023-04-30T13:35:45;19.87;;;6.73;;
77775;SDS011;66965;43.328;6.668;2023-04-30T13:40:36;15.63;;;6.18;;
77775;SDS011;66965;43.328;6.668;2023-04-30T13:43:02;29.00;;;7.10;;
77775;SDS011;66965;43.328;6.668;2023-04-30T13:45:28;10.88;;;5.72;;
77775;SDS011;66965;43.328;6.668;2023-04-30T13:47:53;8.57;;;4.40;;
77775;SDS011;66965;43.328;6.668;2023-04-30T13:50:18;7.27;;;4.77;;
77775;SDS011;66965;43.328;6.668;2023-04-30T13:52:43;7.37;;;4.67;;
77775;SDS011;66965;43.328;6.668;2023-04-30T13:55:09;11.37;;;5.33;;
77775;SDS011;66965;43.328;6.668;2023-04-30T13:57:34;10.87;;;5.03;;
77775;SDS011;66965;43.328;6.668;2023-04-30T13:59:59;8.77;;;5.00;;
77775;SDS011;66965;43.328;6.668;2023-04-30T14:02:25;7.82;;;4.57;;
77775;SDS011;66965;43.328;6.668;2023-04-30T14:04:54;23.58;;;8.15;;
77775;SDS011;66965;43.328;6.668;2023-04-30T14:07:19;19.63;;;8.23;;
77775;SDS011;66965;43.328;6.668;2023-04-30T14:09:44;18.93;;;7.13;;
77775;SDS011;66965;43.328;6.668;2023-04-30T14:12:10;15.83;;;6.13;;
77775;SDS011;66965;43.328;6.668;2023-04-30T14:14:35;16.83;;;7.00;;
77775;SDS011;66965;43.328;6.668;2023-04-30T14:17:00;13.00;;;6.20;;
77775;SDS011;66965;43.328;6.668;2023-04-30T14:19:26;20.13;;;6.82;;
77775;SDS011;66965;43.328;6.668;2023-04-30T14:21:51;11.40;;;6.67;;
77775;SDS011;66965;43.328;6.668;2023-04-30T14:24:17;13.80;;;7.13;;
77775;SDS011;66965;43.328;6.668;2023-04-30T14:26:42;18.07;;;6.87;;
77775;SDS011;66965;43.328;6.668;2023-04-30T14:29:09;15.80;;;6.28;;
77775;SDS011;66965;43.328;6.668;2023-04-30T14:31:34;22.85;;;8.10;;
77775;SDS011;66965;43.328;6.668;2023-04-30T14:34:00;13.67;;;6.93;;
77775;SDS011;66965;43.328;6.668;2023-04-30T14:36:25;17.30;;;6.20;;
77775;SDS011;66965;43.328;6.668;2023-04-30T14:38:51;17.35;;;5.80;;
77775;SDS011;66965;43.328;6.668;2023-04-30T14:41:17;17.17;;;7.07;;
77775;SDS011;66965;43.328;6.668;2023-04-30T14:43:42;17.83;;;7.27;;
77775;SDS011;66965;43.328;6.668;2023-04-30T14:46:07;20.97;;;7.37;;
77775;SDS011;66965;43.328;6.668;2023-04-30T14:48:33;17.20;;;6.87;;
77775;SDS011;66965;43.328;6.668;2023-04-30T14:50:58;15.97;;;7.87;;
77775;SDS011;66965;43.328;6.668;2023-04-30T14:53:25;17.98;;;6.57;;
77775;SDS011;66965;43.328;6.668;2023-04-30T14:55:50;23.75;;;7.18;;
77775;SDS011;66965;43.328;6.668;2023-04-30T14:58:16;13.30;;;6.10;;
77775;SDS011;66965;43.328;6.668;2023-04-30T15:00:41;24.27;;;6.13;;
77775;SDS011;66965;43.328;6.668;2023-04-30T15:03:06;9.17;;;5.27;;
77775;SDS011;66965;43.328;6.668;2023-04-30T15:05:32;12.37;;;5.80;;
77775;SDS011;66965;43.328;6.668;2023-04-30T15:07:57;18.02;;;6.43;;
77775;SDS011;66965;43.328;6.668;2023-04-30T15:10:22;17.23;;;6.00;;
77775;SDS011;66965;43.328;6.668;2023-04-30T15:12:47;16.57;;;6.10;;
77775;SDS011;66965;43.328;6.668;2023-04-30T15:15:13;11.70;;;5.77;;
77775;SDS011;66965;43.328;6.668;2023-04-30T15:17:38;13.83;;;6.27;;
77775;SDS011;66965;43.328;6.668;2023-04-30T15:20:04;25.35;;;6.38;;
77775;SDS011;66965;43.328;6.668;2023-04-30T15:22:30;21.25;;;6.40;;
77775;SDS011;66965;43.328;6.668;2023-04-30T15:24:55;19.77;;;7.93;;